Time;durP1;ratioP1;P1;durP2;ratioP2;P2;SDS_P1;SDS_P2;PMS_P1;PMS_P2;Temp;Humidity;BMP_temperature;BMP_pressure;BME280_temperature;BME280_humidity;BME280_pressure;Samples;Min_cycle;Max_cycle;Signal;HPM_P1;HPM_P2
2022/08/30 00:03:18;;;;;;;0.10;0.10;;;;;;;;;;10493995;28;20582;-74
2022/08/30 00:08:20;;;;;;;0.20;0.20;;;;;;;;;;10467561;28;20267;-75
2022/08/30 00:13:21;;;;;;;0.20;0.20;;;;;;;;;;10499055;28;20705;-75
2022/08/30 00:18:23;;;;;;;0.20;0.20;;;;;;;;;;10492877;28;20210;-75
2022/08/30 00:23:24;;;;;;;0.25;0.25;;;;;;;;;;10493345;28;20237;-74
2022/08/30 00:28:25;;;;;;;0.20;0.20;;;;;;;;;;10493584;28;20207;-75
2022/08/30 00:33:27;;;;;;;0.22;0.22;;;;;;;;;;10494603;28;20300;-75
2022/08/30 00:38:28;;;;;;;0.20;0.20;;;;;;;;;;10497127;28;20232;-74
2022/08/30 00:43:34;;;;;;;0.30;0.30;;;;;;;;;;10497118;28;20217;-74
2022/08/30 00:48:37;;;;;;;0.30;0.30;;;;;;;;;;10493552;28;20232;-75
2022/08/30 00:53:41;;;;;;;0.30;0.30;;;;;;;;;;10494276;28;20614;-75
2022/08/30 00:58:44;;;;;;;0.30;0.30;;;;;;;;;;10489598;28;20720;-75
2022/08/30 01:03:45;;;;;;;0.40;0.40;;;;;;;;;;10491856;28;20263;-75
2022/08/30 01:08:47;;;;;;;0.40;0.40;;;;;;;;;;10485881;28;20218;-74
2022/08/30 01:13:49;;;;;;;0.30;0.30;;;;;;;;;;10487408;28;20279;-75
2022/08/30 01:18:51;;;;;;;0.30;0.30;;;;;;;;;;10494920;28;20219;-75
2022/08/30 01:23:55;;;;;;;0.40;0.35;;;;;;;;;;10490277;28;20972;-75
2022/08/30 01:28:59;;;;;;;0.50;0.50;;;;;;;;;;10471088;28;20221;-76
2022/08/30 01:34:01;;;;;;;0.30;0.30;;;;;;;;;;10491413;28;20206;-75
2022/08/30 01:39:02;;;;;;;0.43;0.43;;;;;;;;;;10488231;28;20212;-75
2022/08/30 01:44:05;;;;;;;0.50;0.50;;;;;;;;;;10482247;28;20831;-75
2022/08/30 01:49:08;;;;;;;0.60;0.60;;;;;;;;;;10486882;28;20229;-75
2022/08/30 01:54:09;;;;;;;0.40;0.40;;;;;;;;;;10493323;28;20278;-74
2022/08/30 01:59:10;;;;;;;0.55;0.50;;;;;;;;;;10486702;28;20303;-74
2022/08/30 02:04:13;;;;;;;0.50;0.50;;;;;;;;;;10488865;28;20260;-75
2022/08/30 02:09:14;;;;;;;0.90;0.90;;;;;;;;;;10492824;28;20218;-75
2022/08/30 02:14:15;;;;;;;0.90;0.90;;;;;;;;;;10485571;28;20311;-74
2022/08/30 02:19:16;;;;;;;0.50;0.50;;;;;;;;;;10487723;28;20206;-75
2022/08/30 02:24:17;;;;;;;0.85;0.65;;;;;;;;;;10451355;28;20214;-75
2022/08/30 02:29:19;;;;;;;0.70;0.70;;;;;;;;;;10462295;28;20597;-75
2022/08/30 02:34:20;;;;;;;0.52;0.52;;;;;;;;;;10490868;28;20226;-74
2022/08/30 02:39:21;;;;;;;0.55;0.55;;;;;;;;;;10489121;28;20252;-75
2022/08/30 02:44:23;;;;;;;0.73;0.73;;;;;;;;;;10489865;28;20217;-75
2022/08/30 02:49:24;;;;;;;0.50;0.50;;;;;;;;;;10485387;28;20590;-75
2022/08/30 02:54:25;;;;;;;0.90;0.90;;;;;;;;;;10481956;28;20240;-75
2022/08/30 02:59:26;;;;;;;0.70;0.70;;;;;;;;;;10487548;28;20216;-75
2022/08/30 03:04:27;;;;;;;0.80;0.80;;;;;;;;;;10458763;28;20237;-74
2022/08/30 03:09:28;;;;;;;0.95;0.95;;;;;;;;;;10460317;28;20213;-75
2022/08/30 03:14:30;;;;;;;0.68;0.68;;;;;;;;;;10490069;28;20225;-75
2022/08/30 03:19:31;;;;;;;1.13;1.13;;;;;;;;;;10461455;28;20325;-75
2022/08/30 03:24:32;;;;;;;0.90;0.90;;;;;;;;;;10488083;28;20301;-75
2022/08/30 03:29:34;;;;;;;1.25;1.25;;;;;;;;;;10474612;28;20698;-75
2022/08/30 03:34:35;;;;;;;2.47;0.98;;;;;;;;;;10488004;28;20223;-75
2022/08/30 03:39:36;;;;;;;1.15;1.15;;;;;;;;;;10487887;28;20202;-75
2022/08/30 03:44:37;;;;;;;1.20;1.20;;;;;;;;;;10469730;28;20234;-75
2022/08/30 03:49:38;;;;;;;1.67;1.58;;;;;;;;;;10485219;28;20213;-75
2022/08/30 03:54:39;;;;;;;1.25;1.25;;;;;;;;;;10489927;28;20214;-75
2022/08/30 03:59:40;;;;;;;1.50;1.50;;;;;;;;;;10469388;28;20206;-75
2022/08/30 04:04:42;;;;;;;1.67;1.60;;;;;;;;;;10471262;28;20643;-75
2022/08/30 04:09:43;;;;;;;1.83;1.80;;;;;;;;;;10496550;28;20328;-75
2022/08/30 04:14:44;;;;;;;1.42;1.42;;;;;;;;;;10496180;28;20225;-74
2022/08/30 04:19:45;;;;;;;1.70;1.70;;;;;;;;;;10478362;28;20256;-75
2022/08/30 04:24:46;;;;;;;1.65;1.55;;;;;;;;;;10498321;28;20224;-75
2022/08/30 04:29:47;;;;;;;1.42;1.42;;;;;;;;;;10495720;28;20297;-75
2022/08/30 04:34:48;;;;;;;1.50;1.50;;;;;;;;;;10491608;28;20870;-75
2022/08/30 04:39:49;;;;;;;2.15;1.80;;;;;;;;;;10486434;28;20209;-75
2022/08/30 04:44:50;;;;;;;1.70;1.60;;;;;;;;;;10463486;28;20244;-76
2022/08/30 04:49:52;;;;;;;1.92;1.83;;;;;;;;;;10461302;28;20213;-75
2022/08/30 04:54:56;;;;;;;2.95;2.33;;;;;;;;;;10475883;28;20214;-75
2022/08/30 04:59:57;;;;;;;2.05;1.90;;;;;;;;;;10484714;28;20233;-75
2022/08/30 05:10:18;;;;;;;2.30;1.92;;;;;;;;;;10493882;28;20213;-73
2022/08/30 05:15:21;;;;;;;1.92;1.92;;;;;;;;;;10460281;28;20264;-73
2022/08/30 05:20:22;;;;;;;2.67;2.47;;;;;;;;;;10488340;28;20224;-76
2022/08/30 05:25:24;;;;;;;1.75;1.75;;;;;;;;;;10487122;28;20185;-76
2022/08/30 05:30:26;;;;;;;2.35;2.25;;;;;;;;;;10460298;28;20232;-76
2022/08/30 05:35:28;;;;;;;2.45;2.25;;;;;;;;;;10486752;28;20310;-76
2022/08/30 05:40:29;;;;;;;2.28;2.08;;;;;;;;;;10489943;28;20316;-73
2022/08/30 05:45:30;;;;;;;2.00;1.90;;;;;;;;;;10480844;28;20312;-76
2022/08/30 05:50:31;;;;;;;1.48;1.48;;;;;;;;;;10466458;28;20237;-75
2022/08/30 05:55:32;;;;;;;1.27;1.27;;;;;;;;;;10488792;28;20218;-76
2022/08/30 06:00:36;;;;;;;1.60;1.50;;;;;;;;;;10479802;28;20225;-73
2022/08/30 06:05:37;;;;;;;1.65;1.65;;;;;;;;;;10488059;28;20226;-74
2022/08/30 06:10:38;;;;;;;1.77;1.67;;;;;;;;;;10468534;28;20209;-73
2022/08/30 06:15:39;;;;;;;1.90;1.80;;;;;;;;;;10489663;28;20253;-74
2022/08/30 06:20:41;;;;;;;1.30;1.30;;;;;;;;;;10485177;28;20221;-74
2022/08/30 06:25:43;;;;;;;1.02;1.02;;;;;;;;;;10450258;28;20593;-76
2022/08/30 06:30:44;;;;;;;1.70;1.70;;;;;;;;;;10484877;28;20223;-76
2022/08/30 06:35:45;;;;;;;2.15;1.98;;;;;;;;;;10491361;28;20300;-75
2022/08/30 06:40:47;;;;;;;2.10;2.00;;;;;;;;;;10494590;28;20217;-75
2022/08/30 06:45:48;;;;;;;2.22;2.03;;;;;;;;;;10490885;28;20696;-73
2022/08/30 06:50:53;;;;;;;1.65;1.60;;;;;;;;;;10498831;28;20274;-76
2022/08/30 06:55:55;;;;;;;1.63;1.52;;;;;;;;;;10495499;28;20290;-76
2022/08/30 07:00:56;;;;;;;1.60;1.60;;;;;;;;;;10491452;28;20296;-75
2022/08/30 07:05:57;;;;;;;1.13;1.13;;;;;;;;;;10489631;28;20245;-75
2022/08/30 07:10:58;;;;;;;1.30;1.30;;;;;;;;;;10488103;28;20238;-75
2022/08/30 07:15:59;;;;;;;1.40;1.40;;;;;;;;;;10470565;28;21093;-76
2022/08/30 07:21:15;;;;;;;1.25;1.25;;;;;;;;;;10496438;28;20226;-76
2022/08/30 07:26:18;;;;;;;1.23;1.15;;;;;;;;;;10497397;28;20271;-75
2022/08/30 07:31:19;;;;;;;0.85;0.85;;;;;;;;;;10479373;28;20739;-76
2022/08/30 07:36:21;;;;;;;0.50;0.50;;;;;;;;;;10477847;28;20233;-77
2022/08/30 07:41:29;;;;;;;1.27;0.60;;;;;;;;;;10482409;28;20725;-76
2022/08/30 07:46:30;;;;;;;0.80;0.80;;;;;;;;;;10474647;28;20691;-81
2022/08/30 07:51:32;;;;;;;0.63;0.63;;;;;;;;;;10483046;28;20222;-77
2022/08/30 07:56:33;;;;;;;0.70;0.70;;;;;;;;;;10488053;28;20221;-78
2022/08/30 08:01:35;;;;;;;0.60;0.60;;;;;;;;;;10493650;28;20226;-78
2022/08/30 08:06:38;;;;;;;0.60;0.60;;;;;;;;;;10466438;28;20229;-77
2022/08/30 08:11:42;;;;;;;0.80;0.80;;;;;;;;;;10476359;28;20632;-77
2022/08/30 08:16:45;;;;;;;0.65;0.65;;;;;;;;;;10492133;28;20217;-76
2022/08/30 08:21:46;;;;;;;0.50;0.50;;;;;;;;;;10484956;28;20217;-78
2022/08/30 08:26:47;;;;;;;1.30;0.50;;;;;;;;;;10489353;28;20704;-78
2022/08/30 08:31:49;;;;;;;0.40;0.40;;;;;;;;;;10493180;28;20784;-78
2022/08/30 08:36:50;;;;;;;0.40;0.40;;;;;;;;;;10467863;28;20217;-76
2022/08/30 08:42:14;;;;;;;0.30;0.30;;;;;;;;;;10484263;28;20218;-79
2022/08/30 08:47:17;;;;;;;0.32;0.32;;;;;;;;;;10489051;28;20222;-79
2022/08/30 08:53:38;;;;;;;0.40;0.40;;;;;;;;;;10489086;28;20591;-77
2022/08/30 08:58:13;;;;;;;0.40;0.40;;;;;;;;;;10453768;28;20225;-79
2022/08/30 09:03:15;;;;;;;0.43;0.43;;;;;;;;;;10479739;28;20244;-76
2022/08/30 09:08:17;;;;;;;0.30;0.30;;;;;;;;;;10489573;28;20602;-79
2022/08/30 09:13:19;;;;;;;0.50;0.50;;;;;;;;;;10488072;28;20217;-76
2022/08/30 09:18:20;;;;;;;0.40;0.40;;;;;;;;;;10473546;28;20220;-77
2022/08/30 09:23:26;;;;;;;0.40;0.40;;;;;;;;;;10456611;28;20245;-78
2022/08/30 09:28:31;;;;;;;0.35;0.35;;;;;;;;;;10458631;28;20240;-78
2022/08/30 09:33:33;;;;;;;0.40;0.40;;;;;;;;;;10487712;28;20225;-78
2022/08/30 09:38:34;;;;;;;0.40;0.40;;;;;;;;;;10460503;28;20222;-80
2022/08/30 09:43:35;;;;;;;0.30;0.30;;;;;;;;;;10472279;28;20279;-79
2022/08/30 09:48:42;;;;;;;0.30;0.30;;;;;;;;;;10466501;28;20222;-78
2022/08/30 09:54:04;;;;;;;0.30;0.30;;;;;;;;;;10474329;28;20336;-79
2022/08/30 09:59:14;;;;;;;0.47;0.47;;;;;;;;;;10463066;28;20215;-79
2022/08/30 10:04:15;;;;;;;0.40;0.40;;;;;;;;;;10474739;28;20229;-77
2022/08/30 10:09:16;;;;;;;0.40;0.40;;;;;;;;;;10459540;28;20213;-78
2022/08/30 10:14:20;;;;;;;0.50;0.50;;;;;;;;;;10460978;28;20209;-77
2022/08/30 10:19:40;;;;;;;0.30;0.30;;;;;;;;;;10487549;28;20270;-80
2022/08/30 10:24:44;;;;;;;0.40;0.40;;;;;;;;;;10487393;28;20961;-78
2022/08/30 10:29:51;;;;;;;0.60;0.60;;;;;;;;;;10462828;28;20268;-78
2022/08/30 10:34:55;;;;;;;0.50;0.50;;;;;;;;;;10492275;28;20236;-78
2022/08/30 10:39:59;;;;;;;0.40;0.40;;;;;;;;;;10483103;28;20299;-77
2022/08/30 10:45:07;;;;;;;0.30;0.30;;;;;;;;;;10490062;28;20205;-79
2022/08/30 10:50:08;;;;;;;0.30;0.30;;;;;;;;;;10475199;28;20713;-79
2022/08/30 10:55:13;;;;;;;0.40;0.40;;;;;;;;;;10486550;28;20210;-79
2022/08/30 11:00:28;;;;;;;0.40;0.40;;;;;;;;;;10487182;28;20186;-78
2022/08/30 11:05:44;;;;;;;0.40;0.40;;;;;;;;;;10457364;28;20220;-79
2022/08/30 11:10:48;;;;;;;0.20;0.20;;;;;;;;;;10485952;28;20339;-80
2022/08/30 11:15:55;;;;;;;0.30;0.30;;;;;;;;;;10460749;28;20285;-79
2022/08/30 11:21:16;;;;;;;0.38;0.38;;;;;;;;;;10464439;28;20218;-79
2022/08/30 11:26:37;;;;;;;0.35;0.35;;;;;;;;;;10490079;28;20209;-80
2022/08/30 11:31:39;;;;;;;0.30;0.30;;;;;;;;;;10496813;28;20226;-80
2022/08/30 11:36:40;;;;;;;0.40;0.40;;;;;;;;;;10495696;28;20257;-79
2022/08/30 11:41:45;;;;;;;0.30;0.30;;;;;;;;;;10486636;28;21323;-80
2022/08/30 11:46:48;;;;;;;0.40;0.40;;;;;;;;;;10494970;28;20328;-79
2022/08/30 11:51:55;;;;;;;0.30;0.30;;;;;;;;;;10463740;28;20218;-77
2022/08/30 11:57:05;;;;;;;0.40;0.40;;;;;;;;;;10482464;28;20273;-78
2022/08/30 12:02:07;;;;;;;0.30;0.30;;;;;;;;;;10488695;28;20214;-78
2022/08/30 12:07:09;;;;;;;0.30;0.30;;;;;;;;;;10478536;28;21046;-79
2022/08/30 12:12:30;;;;;;;0.30;0.30;;;;;;;;;;10486491;28;20225;-78
2022/08/30 12:23:18;;;;;;;0.30;0.30;;;;;;;;;;10480953;28;20212;-78
2022/08/30 12:28:24;;;;;;;0.30;0.30;;;;;;;;;;10480869;28;20225;-79
2022/08/30 12:33:30;;;;;;;0.30;0.30;;;;;;;;;;10460335;28;20214;-79
2022/08/30 12:38:31;;;;;;;0.20;0.20;;;;;;;;;;10441485;28;20225;-79
2022/08/30 12:43:46;;;;;;;0.30;0.30;;;;;;;;;;10493166;28;20600;-79
2022/08/30 12:48:48;;;;;;;0.20;0.20;;;;;;;;;;10492529;28;20297;-78
2022/08/30 12:53:49;;;;;;;0.30;0.30;;;;;;;;;;10491109;28;20218;-79
2022/08/30 12:58:51;;;;;;;0.20;0.20;;;;;;;;;;10492156;28;20231;-79
2022/08/30 13:04:01;;;;;;;0.20;0.20;;;;;;;;;;10491555;28;20222;-77
2022/08/30 13:09:02;;;;;;;0.20;0.20;;;;;;;;;;10496940;28;20213;-77
2022/08/30 13:14:22;;;;;;;0.30;0.30;;;;;;;;;;10459058;28;20213;-77
2022/08/30 13:19:35;;;;;;;0.45;0.30;;;;;;;;;;10484364;28;20225;-77
2022/08/30 13:24:36;;;;;;;0.30;0.30;;;;;;;;;;10458366;28;20887;-77
2022/08/30 13:29:37;;;;;;;0.30;0.30;;;;;;;;;;10487198;28;20301;-76
2022/08/30 13:34:38;;;;;;;0.30;0.30;;;;;;;;;;10469189;28;20996;-78
2022/08/30 13:39:39;;;;;;;0.30;0.30;;;;;;;;;;10469689;28;20218;-77
2022/08/30 13:44:40;;;;;;;0.30;0.30;;;;;;;;;;10491486;28;20209;-77
2022/08/30 13:49:43;;;;;;;0.30;0.30;;;;;;;;;;10484277;28;20271;-76
2022/08/30 13:54:45;;;;;;;0.30;0.30;;;;;;;;;;10479902;28;20240;-76
2022/08/30 13:59:46;;;;;;;0.22;0.22;;;;;;;;;;10489177;28;20236;-76
2022/08/30 14:04:47;;;;;;;0.50;0.50;;;;;;;;;;10478823;28;20587;-76
2022/08/30 14:09:49;;;;;;;0.22;0.22;;;;;;;;;;10482772;28;20249;-76
2022/08/30 14:14:50;;;;;;;0.50;0.50;;;;;;;;;;10447836;28;20620;-77
2022/08/30 14:19:51;;;;;;;0.30;0.30;;;;;;;;;;10451776;28;20217;-76
2022/08/30 14:24:53;;;;;;;0.30;0.30;;;;;;;;;;10479109;28;20214;-76
2022/08/30 14:29:54;;;;;;;0.20;0.20;;;;;;;;;;10436587;28;20673;-76
2022/08/30 14:34:56;;;;;;;0.30;0.30;;;;;;;;;;10474627;28;21039;-76
2022/08/30 14:39:57;;;;;;;0.22;0.22;;;;;;;;;;10483430;28;20202;-77
2022/08/30 14:44:58;;;;;;;0.63;0.25;;;;;;;;;;10452548;28;20279;-76
2022/08/30 14:50:00;;;;;;;0.30;0.30;;;;;;;;;;10431865;28;20678;-77
2022/08/30 14:55:04;;;;;;;0.20;0.20;;;;;;;;;;10479424;28;20882;-77
2022/08/30 15:00:06;;;;;;;0.20;0.20;;;;;;;;;;10498089;28;20279;-77
2022/08/30 15:05:08;;;;;;;0.13;0.13;;;;;;;;;;10453913;28;20284;-77
2022/08/30 15:10:11;;;;;;;0.20;0.20;;;;;;;;;;10479533;28;20593;-75
2022/08/30 15:15:13;;;;;;;0.30;0.30;;;;;;;;;;10480298;28;20216;-74
2022/08/30 15:20:17;;;;;;;0.30;0.30;;;;;;;;;;10475174;28;20209;-75
2022/08/30 15:25:18;;;;;;;0.50;0.50;;;;;;;;;;10443234;28;20214;-73
2022/08/30 15:30:20;;;;;;;0.20;0.20;;;;;;;;;;10478390;28;20198;-74
2022/08/30 15:35:21;;;;;;;0.30;0.30;;;;;;;;;;10485409;28;20205;-73
2022/08/30 15:40:23;;;;;;;0.30;0.30;;;;;;;;;;10484100;28;20191;-73
2022/08/30 15:45:24;;;;;;;0.28;0.28;;;;;;;;;;10487839;28;20654;-72
2022/08/30 15:50:26;;;;;;;0.35;0.35;;;;;;;;;;10489216;28;20272;-76
2022/08/30 15:55:27;;;;;;;0.20;0.20;;;;;;;;;;10479239;28;20255;-77
2022/08/30 16:00:28;;;;;;;0.20;0.20;;;;;;;;;;10448040;28;20230;-77
2022/08/30 16:05:29;;;;;;;0.20;0.20;;;;;;;;;;10458747;28;20220;-77
2022/08/30 16:10:30;;;;;;;0.20;0.20;;;;;;;;;;10485400;28;20218;-71
2022/08/30 16:15:31;;;;;;;2.03;0.20;;;;;;;;;;10487641;28;20222;-70
2022/08/30 16:20:32;;;;;;;0.20;0.20;;;;;;;;;;10489548;28;20252;-72
2022/08/30 16:25:33;;;;;;;0.17;0.17;;;;;;;;;;10481976;28;20314;-71
2022/08/30 16:30:34;;;;;;;0.20;0.20;;;;;;;;;;10473557;28;20342;-75
2022/08/30 16:35:35;;;;;;;0.10;0.10;;;;;;;;;;10482988;28;20240;-74
2022/08/30 16:40:36;;;;;;;0.20;0.20;;;;;;;;;;10485570;28;20279;-73
2022/08/30 16:45:38;;;;;;;0.20;0.20;;;;;;;;;;10480295;28;20225;-73
2022/08/30 16:50:41;;;;;;;0.20;0.20;;;;;;;;;;10480090;28;20662;-73
2022/08/30 16:55:42;;;;;;;0.20;0.20;;;;;;;;;;10474690;28;20384;-72
2022/08/30 17:00:43;;;;;;;0.20;0.20;;;;;;;;;;10436786;28;20218;-72
2022/08/30 17:05:44;;;;;;;0.15;0.15;;;;;;;;;;10489936;28;20230;-80
2022/08/30 17:10:45;;;;;;;0.10;0.10;;;;;;;;;;10479726;28;20232;-74
2022/08/30 17:15:46;;;;;;;0.20;0.20;;;;;;;;;;10474505;28;20276;-72
2022/08/30 17:20:47;;;;;;;0.10;0.10;;;;;;;;;;10474107;28;20225;-73
2022/08/30 17:25:49;;;;;;;0.10;0.10;;;;;;;;;;10468322;28;20218;-73
2022/08/30 17:30:50;;;;;;;0.10;0.10;;;;;;;;;;10466839;28;20232;-72
2022/08/30 17:35:52;;;;;;;0.10;0.10;;;;;;;;;;10473346;28;20218;-74
2022/08/30 17:40:53;;;;;;;0.20;0.20;;;;;;;;;;10475528;28;20213;-74
2022/08/30 17:46:01;;;;;;;0.20;0.20;;;;;;;;;;10449702;28;20205;-74
2022/08/30 17:51:03;;;;;;;0.20;0.20;;;;;;;;;;10454532;28;20295;-69
2022/08/30 17:56:04;;;;;;;0.20;0.20;;;;;;;;;;10472408;28;20667;-72
2022/08/30 18:01:10;;;;;;;0.32;0.32;;;;;;;;;;10471098;28;20218;-73
2022/08/30 18:06:12;;;;;;;0.10;0.10;;;;;;;;;;10477358;28;20312;-73
2022/08/30 18:11:13;;;;;;;0.20;0.20;;;;;;;;;;10476687;28;20613;-80
2022/08/30 18:16:14;;;;;;;0.20;0.20;;;;;;;;;;10475611;28;20249;-79
2022/08/30 18:21:16;;;;;;;0.20;0.20;;;;;;;;;;10475489;28;20231;-75
2022/08/30 18:26:17;;;;;;;0.30;0.30;;;;;;;;;;10477127;28;20213;-72
2022/08/30 18:31:18;;;;;;;0.30;0.30;;;;;;;;;;10469294;28;20636;-73
2022/08/30 18:36:19;;;;;;;0.22;0.22;;;;;;;;;;10487687;28;20270;-74
2022/08/30 18:41:21;;;;;;;0.30;0.30;;;;;;;;;;10483239;28;20300;-73
2022/08/30 18:46:22;;;;;;;0.30;0.30;;;;;;;;;;10482394;28;20201;-75
2022/08/30 18:51:23;;;;;;;0.40;0.40;;;;;;;;;;10484468;28;20615;-76
2022/08/30 18:56:25;;;;;;;0.30;0.30;;;;;;;;;;10484595;28;20313;-77
2022/08/30 19:01:26;;;;;;;0.30;0.30;;;;;;;;;;10483732;28;20214;-75
2022/08/30 19:06:27;;;;;;;0.30;0.30;;;;;;;;;;10492917;28;20229;-73
2022/08/30 19:11:28;;;;;;;0.40;0.40;;;;;;;;;;10482706;28;20395;-75
2022/08/30 19:16:29;;;;;;;0.30;0.30;;;;;;;;;;10481253;28;20279;-74
2022/08/30 19:21:30;;;;;;;0.30;0.30;;;;;;;;;;10464718;28;20222;-71
2022/08/30 19:26:34;;;;;;;0.30;0.30;;;;;;;;;;10486308;28;20880;-74
2022/08/30 19:31:35;;;;;;;0.30;0.30;;;;;;;;;;10478618;28;20232;-74
2022/08/30 19:36:36;;;;;;;0.40;0.40;;;;;;;;;;10488295;28;20229;-75
2022/08/30 19:41:37;;;;;;;0.22;0.22;;;;;;;;;;10460193;28;20592;-75
2022/08/30 19:46:38;;;;;;;0.30;0.30;;;;;;;;;;10480781;28;20336;-75
2022/08/30 19:51:39;;;;;;;0.40;0.40;;;;;;;;;;10483455;28;20225;-72
2022/08/30 19:56:40;;;;;;;0.30;0.30;;;;;;;;;;10489042;28;20228;-72
2022/08/30 20:01:41;;;;;;;0.32;0.30;;;;;;;;;;10479796;28;20210;-72
2022/08/30 20:06:43;;;;;;;0.30;0.30;;;;;;;;;;10481955;28;20221;-72
2022/08/30 20:11:44;;;;;;;0.30;0.30;;;;;;;;;;10480541;28;20962;-72
2022/08/30 20:16:46;;;;;;;1.30;0.30;;;;;;;;;;10485683;28;20446;-70
2022/08/30 20:21:47;;;;;;;0.30;0.30;;;;;;;;;;10484683;28;20266;-73
2022/08/30 20:26:48;;;;;;;0.40;0.40;;;;;;;;;;10485069;28;20218;-73
2022/08/30 20:31:49;;;;;;;0.40;0.40;;;;;;;;;;10481332;28;20211;-70
2022/08/30 20:36:50;;;;;;;0.40;0.40;;;;;;;;;;10488771;28;20953;-70
2022/08/30 20:41:51;;;;;;;0.30;0.30;;;;;;;;;;10491343;28;20214;-71
2022/08/30 20:46:52;;;;;;;0.20;0.20;;;;;;;;;;10480685;28;20225;-70
2022/08/30 20:51:54;;;;;;;0.57;0.40;;;;;;;;;;10486946;28;20300;-70
2022/08/30 20:56:55;;;;;;;0.20;0.20;;;;;;;;;;10486815;28;20308;-70
2022/08/30 21:01:56;;;;;;;0.45;0.30;;;;;;;;;;10489158;28;20221;-70
2022/08/30 21:06:58;;;;;;;0.30;0.30;;;;;;;;;;10490983;28;20319;-70
2022/08/30 21:11:59;;;;;;;0.20;0.20;;;;;;;;;;10493510;28;20800;-70
2022/08/30 21:17:01;;;;;;;0.30;0.30;;;;;;;;;;10494393;28;20952;-70
2022/08/30 21:22:02;;;;;;;0.30;0.30;;;;;;;;;;10492559;28;20263;-70
2022/08/30 21:27:03;;;;;;;0.20;0.20;;;;;;;;;;10463202;28;20240;-70
2022/08/30 21:32:04;;;;;;;0.40;0.40;;;;;;;;;;10497168;28;20234;-70
2022/08/30 21:37:05;;;;;;;0.30;0.30;;;;;;;;;;10493441;28;20218;-70
2022/08/30 21:42:07;;;;;;;0.30;0.30;;;;;;;;;;10488121;28;20338;-70
2022/08/30 21:47:09;;;;;;;0.28;0.28;;;;;;;;;;10494050;28;20588;-70
2022/08/30 21:52:10;;;;;;;0.65;0.30;;;;;;;;;;10489288;28;20209;-71
2022/08/30 21:57:12;;;;;;;0.30;0.30;;;;;;;;;;10463082;28;20267;-71
2022/08/30 22:02:13;;;;;;;0.30;0.30;;;;;;;;;;10457387;28;20328;-71
2022/08/30 22:07:14;;;;;;;0.30;0.30;;;;;;;;;;10469734;28;20305;-71
2022/08/30 22:12:16;;;;;;;0.20;0.20;;;;;;;;;;10489790;28;20245;-71
2022/08/30 22:17:17;;;;;;;0.35;0.30;;;;;;;;;;10487113;28;20221;-71
2022/08/30 22:22:19;;;;;;;0.40;0.40;;;;;;;;;;10490191;28;20645;-70
2022/08/30 22:27:20;;;;;;;0.73;0.40;;;;;;;;;;10488492;28;20214;-71
2022/08/30 22:32:21;;;;;;;0.40;0.40;;;;;;;;;;10460013;28;20221;-71
2022/08/30 22:37:22;;;;;;;0.30;0.30;;;;;;;;;;10488150;28;20287;-71
2022/08/30 22:42:23;;;;;;;0.40;0.40;;;;;;;;;;10488531;28;20754;-71
2022/08/30 22:47:24;;;;;;;0.30;0.30;;;;;;;;;;10490841;28;22130;-71
2022/08/30 22:52:25;;;;;;;0.43;0.43;;;;;;;;;;10490977;28;20210;-70
2022/08/30 22:57:26;;;;;;;0.40;0.30;;;;;;;;;;10484141;28;20226;-71
2022/08/30 23:02:27;;;;;;;0.40;0.40;;;;;;;;;;10490883;28;21227;-71
2022/08/30 23:07:28;;;;;;;0.30;0.30;;;;;;;;;;10473515;28;20822;-70
2022/08/30 23:12:29;;;;;;;0.40;0.40;;;;;;;;;;10492095;28;20247;-70
2022/08/30 23:17:30;;;;;;;0.35;0.35;;;;;;;;;;10474893;28;20229;-71
2022/08/30 23:22:32;;;;;;;0.40;0.40;;;;;;;;;;10495025;28;21501;-70
